Terminal Aerodrome Forecast
Issued by NWS Wilmington, OH

Current Version | Previous Version | Text Only | Print | Product List | Glossary Off
Versions: 1 2 3 4 5 6 7 8 9 10 11 12 13 14 15 16 17 18 19 20

000
FTUS41 KILN 192000 AAA
TAFDAY
TAF AMD
KDAY 192031Z 1921/2018 31012G18KT P6SM BKN035
     FM200000 34008KT P6SM BKN035
     FM200400 36006KT P6SM SCT250
     FM201600 02008KT P6SM SCT150=

USA.gov is the U.S. government's official web portal to all federal, state and local government web resources and services.